Terminal Aerodrome Forecast
Issued by NWS

Home | Current Version | Previous Version | Text Only | Print | Product List | Glossary On
Versions: 1 2 3 4 5 6 7 8 9 10 11 12 13 14 15
000
FTUS43 KILX 142300
TAFDEC
TAF
KDEC 142321Z 1500/1524 15005KT P6SM SCT150
     FM151100 19006KT P6SM VCTS BKN050CB
      TEMPO 1518/1521 4SM -SHRA BR BKN030
     FM152200 34012G18KT P6SM VCSH BKN030
      TEMPO 1522/1524 4SM -SHRA BR BKN025=

USA.gov is the U.S. government's official web portal to all federal, state and local government web resources and services.